Terminal Aerodrome Forecast
Issued by NWS

Home | Current Version | Previous Version | Text Only | Print | Product List | Glossary On
Versions: 1 2 3 4 5 6 7 8 9 10 11 12 13 14 15 16 17 18 19
000
FTUS43 KGRB 210500
TAFMTW
TAF
KMTW 210533Z 2106/2206 25011KT P6SM OVC045
     FM211000 26012KT P6SM -RASN BKN025 OVC060
     FM211500 27017G25KT P6SM -SHRA SCT020 OVC035
     FM220100 29012KT P6SM BKN035 BKN070=

USA.gov is the U.S. government's official web portal to all federal, state and local government web resources and services.